Time;durP1;ratioP1;P1;durP2;ratioP2;P2;SDS_P1;SDS_P2;PMS_P1;PMS_P2;Temp;Humidity;BMP_temperature;BMP_pressure;BME280_temperature;BME280_humidity;BME280_pressure;Samples;Min_cycle;Max_cycle;Signal;HPM_P1;HPM_P2
2023/12/04 00:02:20;;;;;;;19.50;10.70;;;1.00;60.50;;;;;;5046358;28;20201;-52
2023/12/04 00:04:45;;;;;;;19.27;11.30;;;1.20;60.20;;;;;;5043895;28;20235;-54
2023/12/04 00:07:11;;;;;;;16.40;10.77;;;1.40;59.20;;;;;;5041536;28;20555;-53
2023/12/04 00:09:36;;;;;;;15.47;8.90;;;1.70;58.90;;;;;;5044010;28;20725;-52
2023/12/04 00:12:02;;;;;;;15.70;10.73;;;1.70;58.30;;;;;;5037448;28;20574;-53
2023/12/04 00:14:28;;;;;;;13.93;10.20;;;1.80;58.20;;;;;;5043615;28;20185;-51
2023/12/04 00:16:53;;;;;;;19.10;11.50;;;1.60;58.10;;;;;;5036178;28;20194;-51
2023/12/04 00:19:19;;;;;;;19.47;12.13;;;1.60;58.40;;;;;;5037942;28;20684;-51
2023/12/04 00:21:44;;;;;;;18.17;11.67;;;1.70;58.30;;;;;;5042663;28;20267;-51
2023/12/04 00:24:10;;;;;;;15.23;9.77;;;1.60;58.10;;;;;;5036310;28;20563;-54
2023/12/04 00:26:35;;;;;;;15.00;10.07;;;1.50;58.30;;;;;;5039339;28;20189;-54
2023/12/04 00:29:01;;;;;;;15.47;9.87;;;1.70;58.50;;;;;;5043757;28;20207;-52
2023/12/04 00:31:26;;;;;;;15.93;9.50;;;1.80;58.00;;;;;;5049121;28;20191;-52
2023/12/04 00:33:52;;;;;;;17.60;10.50;;;2.00;57.80;;;;;;5047620;28;20185;-53
2023/12/04 00:36:19;;;;;;;15.83;9.57;;;2.10;57.20;;;;;;5046089;28;20173;-55
2023/12/04 00:38:45;;;;;;;13.43;9.60;;;2.20;56.80;;;;;;5036959;28;20211;-53
2023/12/04 00:41:11;;;;;;;16.90;10.17;;;2.30;56.40;;;;;;5046279;28;20465;-55
2023/12/04 00:43:37;;;;;;;16.50;9.93;;;2.40;56.70;;;;;;5046729;28;20201;-54
2023/12/04 00:46:03;;;;;;;16.10;9.33;;;2.50;55.80;;;;;;5046151;28;20896;-53
2023/12/04 00:48:28;;;;;;;15.17;9.10;;;2.50;55.70;;;;;;5044663;28;20514;-55
2023/12/04 00:50:55;;;;;;;19.10;10.90;;;2.60;55.80;;;;;;5046181;28;20227;-55
2023/12/04 00:53:20;;;;;;;17.37;10.57;;;2.60;55.60;;;;;;5048434;28;20180;-54
2023/12/04 00:55:46;;;;;;;16.43;9.70;;;2.60;55.40;;;;;;5048815;28;20430;-53
2023/12/04 00:58:12;;;;;;;16.67;9.90;;;2.60;55.10;;;;;;5043782;28;20192;-53
2023/12/04 01:00:38;;;;;;;19.73;10.37;;;2.50;55.20;;;;;;5049559;28;20223;-56
2023/12/04 01:03:03;;;;;;;13.57;9.50;;;2.40;55.40;;;;;;5041798;28;20444;-54
2023/12/04 01:05:29;;;;;;;14.93;10.10;;;2.20;55.40;;;;;;5044723;28;20197;-55
2023/12/04 01:07:54;;;;;;;12.97;9.00;;;2.00;55.80;;;;;;5050757;28;20266;-54
2023/12/04 01:10:20;;;;;;;16.87;9.70;;;2.00;56.20;;;;;;5043591;28;20282;-55
2023/12/04 01:12:46;;;;;;;16.70;9.83;;;2.00;56.20;;;;;;5039969;28;20272;-56
2023/12/04 01:15:11;;;;;;;15.90;9.63;;;2.10;56.10;;;;;;5040365;28;20188;-55
2023/12/04 01:17:37;;;;;;;15.17;8.40;;;2.10;55.30;;;;;;5036805;28;20216;-56
2023/12/04 01:20:02;;;;;;;11.20;8.07;;;2.00;55.30;;;;;;5050175;28;20303;-54
2023/12/04 01:22:28;;;;;;;13.00;8.83;;;2.00;55.30;;;;;;5046908;28;20201;-57
2023/12/04 01:24:54;;;;;;;11.67;8.33;;;1.40;56.30;;;;;;5052006;28;20188;-57
2023/12/04 01:27:19;;;;;;;15.97;9.33;;;1.10;56.90;;;;;;5051880;28;20165;-58
2023/12/04 01:29:45;;;;;;;16.87;8.90;;;1.20;57.60;;;;;;5049758;28;20212;-58
2023/12/04 01:32:10;;;;;;;12.33;8.33;;;1.30;57.40;;;;;;5051496;28;20185;-54
2023/12/04 01:34:36;;;;;;;19.77;9.37;;;1.40;57.10;;;;;;5051901;28;20672;-53
2023/12/04 01:37:01;;;;;;;14.30;9.80;;;1.50;56.90;;;;;;5051614;28;20634;-55
2023/12/04 01:39:27;;;;;;;15.60;9.10;;;1.70;56.70;;;;;;5047067;28;20217;-58
2023/12/04 01:41:52;;;;;;;15.30;9.20;;;1.80;56.30;;;;;;5049979;28;20196;-56
2023/12/04 01:44:19;;;;;;;14.00;8.50;;;1.90;56.00;;;;;;5052106;28;20181;-57
2023/12/04 01:46:44;;;;;;;12.27;8.40;;;1.80;55.70;;;;;;5050531;28;20172;-58
2023/12/04 01:49:10;;;;;;;13.70;9.30;;;1.70;55.70;;;;;;5050291;28;20842;-56
2023/12/04 01:51:36;;;;;;;9.57;7.63;;;1.60;55.80;;;;;;5051409;28;20539;-56
2023/12/04 01:54:04;;;;;;;12.17;8.07;;;1.60;55.80;;;;;;5049025;28;20216;-56
2023/12/04 01:56:30;;;;;;;17.10;8.77;;;1.70;55.80;;;;;;5051721;28;20431;-58
2023/12/04 01:58:56;;;;;;;15.20;8.83;;;1.80;55.40;;;;;;5049259;28;20447;-56
2023/12/04 02:01:23;;;;;;;14.47;8.97;;;1.90;55.40;;;;;;5051268;28;20688;-58
2023/12/04 02:03:49;;;;;;;14.40;9.30;;;1.90;55.30;;;;;;5051500;28;20419;-55
2023/12/04 02:06:16;;;;;;;14.30;9.60;;;2.00;55.50;;;;;;5046921;28;20428;-57
2023/12/04 02:08:43;;;;;;;16.90;9.80;;;2.00;55.70;;;;;;5043770;28;20452;-55
2023/12/04 02:11:09;;;;;;;13.43;9.17;;;2.00;55.70;;;;;;5043043;28;20498;-56
2023/12/04 02:13:35;;;;;;;18.80;9.00;;;2.10;55.60;;;;;;5046411;28;20441;-58
2023/12/04 02:16:06;;;;;;;17.60;10.80;;;2.10;55.40;;;;;;5041034;28;20938;-57
2023/12/04 02:18:34;;;;;;;15.43;9.63;;;2.10;55.30;;;;;;5045188;28;20185;-57
2023/12/04 02:21:01;;;;;;;15.43;9.57;;;2.20;55.40;;;;;;5045177;28;20479;-58
2023/12/04 02:23:27;;;;;;;14.80;9.30;;;2.20;55.10;;;;;;5047595;28;20434;-56
2023/12/04 02:25:59;;;;;;;14.97;9.40;;;2.10;55.10;;;;;;5048875;28;20466;-53
2023/12/04 02:28:28;;;;;;;17.17;9.43;;;2.00;55.50;;;;;;5050697;28;20415;-54
2023/12/04 02:30:55;;;;;;;15.53;9.23;;;2.10;55.30;;;;;;5050704;28;20482;-54
2023/12/04 02:33:24;;;;;;;12.60;9.40;;;2.10;55.40;;;;;;5047928;28;20431;-55
2023/12/04 02:35:51;;;;;;;14.90;8.50;;;2.10;55.60;;;;;;5047700;28;20431;-54
2023/12/04 02:38:17;;;;;;;13.60;8.47;;;2.10;55.60;;;;;;5048471;28;20439;-54
2023/12/04 02:40:43;;;;;;;13.20;8.27;;;2.10;55.40;;;;;;5050923;28;20435;-55
2023/12/04 02:43:09;;;;;;;13.20;8.77;;;2.10;55.20;;;;;;5049526;28;20597;-54
2023/12/04 02:45:34;;;;;;;13.63;9.03;;;2.20;55.10;;;;;;5049957;28;20500;-54
2023/12/04 02:48:00;;;;;;;14.23;8.87;;;2.20;54.80;;;;;;5050846;28;20188;-54
2023/12/04 02:50:25;;;;;;;14.80;9.00;;;2.20;54.60;;;;;;5048996;28;20216;-54
2023/12/04 02:52:51;;;;;;;13.27;8.97;;;2.20;54.60;;;;;;5043851;28;20201;-54
2023/12/04 02:55:16;;;;;;;13.90;7.70;;;2.20;54.60;;;;;;5046466;28;20185;-56
2023/12/04 02:57:42;;;;;;;12.20;8.27;;;2.20;54.60;;;;;;5048727;28;20181;-55
2023/12/04 03:00:09;;;;;;;13.93;8.13;;;2.20;54.60;;;;;;5049073;28;20258;-54
2023/12/04 03:02:34;;;;;;;13.00;8.20;;;2.30;54.50;;;;;;5050834;28;20200;-58
2023/12/04 03:05:00;;;;;;;15.23;8.73;;;2.30;54.30;;;;;;5045498;28;20516;-57
2023/12/04 03:07:26;;;;;;;14.00;7.93;;;2.20;54.70;;;;;;5046527;28;20680;-55
2023/12/04 03:09:52;;;;;;;12.43;7.87;;;2.20;54.20;;;;;;5046546;28;20220;-55
2023/12/04 03:12:17;;;;;;;10.60;7.67;;;2.20;54.10;;;;;;5045485;28;20489;-54
2023/12/04 03:14:43;;;;;;;11.13;8.10;;;2.10;54.20;;;;;;5044007;28;20699;-54
2023/12/04 03:17:08;;;;;;;10.47;6.83;;;2.10;54.70;;;;;;5043044;28;20250;-56
2023/12/04 03:19:34;;;;;;;12.90;7.77;;;2.10;54.60;;;;;;5048768;28;20217;-55
2023/12/04 03:22:01;;;;;;;14.70;9.40;;;2.10;54.60;;;;;;5049591;28;20220;-55
2023/12/04 03:24:26;;;;;;;11.37;8.13;;;2.20;54.70;;;;;;5043866;28;20639;-55
2023/12/04 03:26:52;;;;;;;12.50;7.83;;;2.10;54.30;;;;;;5048295;28;20441;-55
2023/12/04 03:29:18;;;;;;;14.30;7.50;;;2.10;54.60;;;;;;5049289;28;20232;-54
2023/12/04 03:31:43;;;;;;;10.30;7.60;;;2.10;54.80;;;;;;5043890;28;20506;-53
2023/12/04 03:34:09;;;;;;;13.97;8.63;;;2.10;54.70;;;;;;5047604;28;20188;-57
2023/12/04 03:36:34;;;;;;;13.33;7.67;;;2.10;54.70;;;;;;5050288;28;20184;-54
2023/12/04 03:39:00;;;;;;;11.60;7.90;;;2.10;54.60;;;;;;5042305;28;20246;-55
2023/12/04 03:41:25;;;;;;;12.13;7.93;;;2.10;54.60;;;;;;5044617;28;20246;-52
2023/12/04 03:43:51;;;;;;;13.90;8.70;;;2.20;54.50;;;;;;5043939;28;20193;-54
2023/12/04 03:46:17;;;;;;;15.33;7.90;;;2.20;54.40;;;;;;5047505;28;20205;-54
2023/12/04 03:48:42;;;;;;;13.07;7.93;;;2.10;54.60;;;;;;5048730;28;20228;-53
2023/12/04 03:51:08;;;;;;;13.17;7.77;;;2.10;54.70;;;;;;5042656;28;20549;-53
2023/12/04 03:53:33;;;;;;;12.40;7.73;;;2.00;54.80;;;;;;5046353;28;20201;-55
2023/12/04 03:55:59;;;;;;;10.73;7.40;;;1.90;55.00;;;;;;5045940;28;20197;-56
2023/12/04 03:58:24;;;;;;;12.00;7.63;;;1.70;55.90;;;;;;5038790;28;20188;-56
2023/12/04 04:00:50;;;;;;;11.07;8.10;;;1.80;56.30;;;;;;5047141;28;20562;-57
2023/12/04 04:03:16;;;;;;;13.63;7.77;;;2.00;56.20;;;;;;5037038;28;20559;-55
2023/12/04 04:05:41;;;;;;;9.63;6.33;;;2.10;55.80;;;;;;5049326;28;20632;-54
2023/12/04 04:08:07;;;;;;;10.90;6.47;;;2.00;55.10;;;;;;5048173;28;20192;-54
2023/12/04 04:10:33;;;;;;;10.57;7.13;;;1.70;55.70;;;;;;5045765;28;20599;-58
2023/12/04 04:12:59;;;;;;;10.50;7.10;;;1.80;56.10;;;;;;5041720;28;20454;-57
2023/12/04 04:15:25;;;;;;;8.67;6.90;;;1.80;56.00;;;;;;5044978;28;20444;-56
2023/12/04 04:17:51;;;;;;;10.63;7.07;;;1.70;56.00;;;;;;5046520;28;20490;-57
2023/12/04 04:20:17;;;;;;;11.27;7.63;;;1.90;56.30;;;;;;5042785;28;20985;-54
2023/12/04 04:22:43;;;;;;;10.50;7.80;;;2.00;56.00;;;;;;5043955;28;20675;-54
2023/12/04 04:25:09;;;;;;;9.57;7.60;;;2.20;55.70;;;;;;5046047;28;20235;-56
2023/12/04 04:27:34;;;;;;;13.37;9.60;;;2.30;55.40;;;;;;5048993;28;20258;-52
2023/12/04 04:30:01;;;;;;;13.83;9.30;;;2.30;55.10;;;;;;5044969;28;20479;-54
2023/12/04 04:32:26;;;;;;;11.67;7.43;;;2.30;54.90;;;;;;5044865;28;20238;-57
2023/12/04 04:34:52;;;;;;;10.30;7.53;;;2.30;54.90;;;;;;5048983;28;20463;-55
2023/12/04 04:37:17;;;;;;;12.60;8.43;;;2.20;54.40;;;;;;5043583;28;20272;-54
2023/12/04 04:39:43;;;;;;;10.33;7.33;;;2.00;55.20;;;;;;5042406;28;20263;-54
2023/12/04 04:42:08;;;;;;;9.30;7.33;;;2.10;55.60;;;;;;5040514;28;20189;-53
2023/12/04 04:44:34;;;;;;;9.87;7.23;;;2.20;56.00;;;;;;5039750;28;20251;-54
2023/12/04 04:47:00;;;;;;;10.83;7.50;;;2.30;55.10;;;;;;5042980;28;20802;-54
2023/12/04 04:49:25;;;;;;;10.77;7.07;;;2.30;55.00;;;;;;5044447;28;20207;-57
2023/12/04 04:51:51;;;;;;;13.30;7.73;;;2.40;54.90;;;;;;5045879;28;20197;-55
2023/12/04 04:54:16;;;;;;;9.03;6.20;;;2.30;54.70;;;;;;5038938;28;20185;-56
2023/12/04 04:56:42;;;;;;;10.53;7.10;;;2.30;54.70;;;;;;5049094;28;20543;-56
2023/12/04 04:59:07;;;;;;;11.80;6.80;;;2.40;54.90;;;;;;5048242;28;20208;-55
2023/12/04 05:01:33;;;;;;;10.33;7.13;;;2.40;54.70;;;;;;5045903;28;20207;-54
2023/12/04 05:03:59;;;;;;;10.27;7.00;;;2.40;54.60;;;;;;5046196;28;20193;-56
2023/12/04 05:06:25;;;;;;;11.10;6.47;;;2.40;54.50;;;;;;5046148;28;20402;-55
2023/12/04 05:08:52;;;;;;;10.67;6.00;;;2.50;54.60;;;;;;5047671;28;20530;-55
2023/12/04 05:11:18;;;;;;;9.17;6.23;;;2.50;54.40;;;;;;5038918;28;20475;-53
2023/12/04 05:13:45;;;;;;;10.50;6.50;;;2.50;54.40;;;;;;5047114;28;20868;-56
2023/12/04 05:16:10;;;;;;;9.90;6.67;;;2.50;54.40;;;;;;5045736;28;20188;-54
2023/12/04 05:18:36;;;;;;;9.93;5.80;;;2.50;54.40;;;;;;5046903;28;20431;-55
2023/12/04 05:21:02;;;;;;;9.10;6.10;;;2.50;54.30;;;;;;5045733;28;20200;-54
2023/12/04 05:23:28;;;;;;;10.33;6.97;;;2.50;54.50;;;;;;5038942;28;20196;-56
2023/12/04 05:25:53;;;;;;;9.70;6.53;;;2.50;54.50;;;;;;5041304;28;20439;-53
2023/12/04 05:28:19;;;;;;;11.00;6.17;;;2.50;54.50;;;;;;5038043;28;20183;-57
2023/12/04 05:30:44;;;;;;;8.87;5.80;;;2.30;54.50;;;;;;5047981;28;20238;-58
2023/12/04 05:33:10;;;;;;;9.03;6.90;;;2.20;54.80;;;;;;5042661;28;20258;-53
2023/12/04 05:35:37;;;;;;;11.47;7.27;;;2.20;54.90;;;;;;5045083;28;20676;-54
2023/12/04 05:38:02;;;;;;;9.53;6.80;;;2.20;55.00;;;;;;5041480;28;20193;-52
2023/12/04 05:40:28;;;;;;;11.80;7.57;;;2.30;55.10;;;;;;5048067;28;21051;-55
2023/12/04 05:42:54;;;;;;;16.97;8.20;;;2.40;54.90;;;;;;5045654;28;20191;-54
2023/12/04 05:45:19;;;;;;;10.40;7.40;;;2.50;54.80;;;;;;5049864;28;20686;-57
2023/12/04 05:47:45;;;;;;;13.50;8.33;;;2.50;54.70;;;;;;5050954;28;20191;-56
2023/12/04 05:50:11;;;;;;;9.70;6.20;;;2.50;54.70;;;;;;5049070;28;20578;-54
2023/12/04 05:52:36;;;;;;;8.23;5.97;;;2.50;54.70;;;;;;5049674;28;20185;-53
2023/12/04 05:55:02;;;;;;;10.70;6.77;;;2.50;54.70;;;;;;5050981;28;20195;-53
2023/12/04 05:57:28;;;;;;;12.03;7.77;;;2.50;54.80;;;;;;5051441;28;20576;-53
2023/12/04 05:59:54;;;;;;;10.03;7.53;;;2.50;54.80;;;;;;5049347;28;20579;-54
2023/12/04 06:02:20;;;;;;;8.53;6.07;;;2.60;54.90;;;;;;5048292;28;20471;-54
2023/12/04 06:04:46;;;;;;;8.40;6.10;;;2.60;54.70;;;;;;5048650;28;20873;-53
2023/12/04 06:07:11;;;;;;;10.60;6.80;;;2.60;54.60;;;;;;5050215;28;20279;-53
2023/12/04 06:09:37;;;;;;;7.83;5.53;;;2.60;54.60;;;;;;5046386;28;20228;-53
2023/12/04 06:12:08;;;;;;;7.27;5.90;;;2.60;54.70;;;;;;5044365;28;20188;-53
2023/12/04 06:14:34;;;;;;;10.10;6.60;;;2.50;54.50;;;;;;5043879;28;20674;-54
2023/12/04 06:17:00;;;;;;;10.73;6.63;;;2.50;54.40;;;;;;5048752;28;20470;-53
2023/12/04 06:19:28;;;;;;;11.27;6.80;;;2.50;54.90;;;;;;5041148;28;20495;-53
2023/12/04 06:21:54;;;;;;;8.70;5.53;;;2.20;55.10;;;;;;5043814;28;20434;-53
2023/12/04 06:24:20;;;;;;;8.83;6.53;;;2.10;55.30;;;;;;5043493;28;20482;-56
2023/12/04 06:26:49;;;;;;;6.57;4.80;;;2.00;55.70;;;;;;5044157;28;20490;-53
2023/12/04 06:29:15;;;;;;;9.03;6.60;;;1.80;55.40;;;;;;5039098;28;20517;-54
2023/12/04 06:31:41;;;;;;;8.03;5.50;;;1.60;56.10;;;;;;5044633;28;20828;-54
2023/12/04 06:34:07;;;;;;;10.90;7.17;;;1.80;56.40;;;;;;5041690;28;20231;-55
2023/12/04 06:36:37;;;;;;;11.63;5.73;;;2.20;56.20;;;;;;5048209;28;20431;-53
2023/12/04 06:39:09;;;;;;;9.30;6.40;;;2.60;57.50;;;;;;5048207;28;20579;-54
2023/12/04 06:41:34;;;;;;;10.60;5.60;;;3.20;58.10;;;;;;5041367;28;20439;-56
2023/12/04 06:44:00;;;;;;;10.40;6.47;;;3.30;57.40;;;;;;5045771;28;20496;-54
2023/12/04 06:46:28;;;;;;;8.57;5.50;;;3.60;57.00;;;;;;5038795;28;20451;-55
2023/12/04 06:48:57;;;;;;;9.43;6.20;;;3.50;54.50;;;;;;5043156;28;20258;-54
2023/12/04 06:51:22;;;;;;;9.80;6.27;;;2.40;53.30;;;;;;5040933;28;20518;-57
2023/12/04 06:53:48;;;;;;;5.93;4.97;;;1.80;55.20;;;;;;5043515;28;20467;-54
2023/12/04 06:56:15;;;;;;;8.67;5.17;;;1.70;55.80;;;;;;5039294;28;20188;-56
2023/12/04 06:58:41;;;;;;;11.37;5.90;;;1.60;56.20;;;;;;5045343;28;20714;-54
2023/12/04 07:01:06;;;;;;;8.40;5.77;;;1.40;56.50;;;;;;5043903;28;20441;-57
2023/12/04 07:03:32;;;;;;;8.40;5.77;;;1.10;56.80;;;;;;5039749;28;20660;-58
2023/12/04 07:05:58;;;;;;;10.93;7.00;;;0.90;57.60;;;;;;5040121;28;20196;-57
2023/12/04 07:08:23;;;;;;;12.97;6.20;;;0.80;57.80;;;;;;5041807;28;20196;-53
2023/12/04 07:10:49;;;;;;;9.33;6.17;;;0.60;58.30;;;;;;5047793;28;20220;-53
2023/12/04 07:13:14;;;;;;;10.13;7.60;;;0.80;58.70;;;;;;5048498;28;20233;-54
2023/12/04 07:15:40;;;;;;;9.97;6.27;;;1.00;58.40;;;;;;5048672;28;20322;-56
2023/12/04 07:18:05;;;;;;;10.10;6.40;;;1.40;57.90;;;;;;5049673;28;20199;-54
2023/12/04 07:20:31;;;;;;;8.90;6.00;;;1.50;57.60;;;;;;5046694;28;20220;-53
2023/12/04 07:22:57;;;;;;;11.20;7.57;;;1.50;56.90;;;;;;5049102;28;20547;-56
2023/12/04 07:25:24;;;;;;;13.33;7.20;;;1.20;56.90;;;;;;5049073;28;20567;-54
2023/12/04 07:27:49;;;;;;;12.23;7.33;;;1.10;57.70;;;;;;5049137;28;20423;-54
2023/12/04 07:30:15;;;;;;;11.70;7.13;;;1.00;58.20;;;;;;5043005;28;20496;-53
2023/12/04 07:32:41;;;;;;;10.37;6.33;;;1.10;58.10;;;;;;5043597;28;20649;-57
2023/12/04 07:35:07;;;;;;;8.83;6.10;;;1.00;58.10;;;;;;5040744;28;20192;-55
2023/12/04 07:37:33;;;;;;;14.80;7.40;;;0.90;58.30;;;;;;5042835;28;20200;-56
2023/12/04 07:39:58;;;;;;;12.20;6.40;;;0.90;58.30;;;;;;5041536;28;20470;-55
2023/12/04 07:42:24;;;;;;;10.70;6.77;;;1.00;58.20;;;;;;5044353;28;21113;-53
2023/12/04 07:44:50;;;;;;;12.97;7.47;;;1.00;58.10;;;;;;5044996;28;20200;-55
2023/12/04 07:47:15;;;;;;;15.60;8.40;;;1.00;58.10;;;;;;5043837;28;20199;-53
2023/12/04 07:49:42;;;;;;;8.40;6.10;;;1.20;57.80;;;;;;5046438;28;20220;-56
2023/12/04 07:52:08;;;;;;;10.10;6.43;;;1.30;57.90;;;;;;5044000;28;20208;-54
2023/12/04 07:54:34;;;;;;;9.73;6.57;;;1.40;57.80;;;;;;5044484;28;20488;-53
2023/12/04 07:56:59;;;;;;;9.53;5.80;;;1.20;57.60;;;;;;5049715;28;20900;-53
2023/12/04 07:59:25;;;;;;;9.00;5.97;;;1.20;57.70;;;;;;5046914;28;20675;-54
2023/12/04 08:01:51;;;;;;;10.50;6.33;;;1.30;57.80;;;;;;5048476;28;20664;-55
2023/12/04 08:04:16;;;;;;;9.77;6.80;;;1.50;57.60;;;;;;5038855;28;20184;-55
2023/12/04 08:06:42;;;;;;;9.50;6.03;;;1.70;57.00;;;;;;5045503;28;20431;-55
2023/12/04 08:09:09;;;;;;;14.17;7.00;;;1.60;56.70;;;;;;5048911;28;20287;-57
2023/12/04 08:11:35;;;;;;;11.97;8.43;;;1.70;56.80;;;;;;5046277;28;20543;-54
2023/12/04 08:14:01;;;;;;;10.13;6.37;;;1.60;56.80;;;;;;5037790;28;20423;-57
2023/12/04 08:16:28;;;;;;;13.30;8.53;;;1.70;56.70;;;;;;5043792;28;20470;-55
2023/12/04 08:18:54;;;;;;;12.23;7.17;;;1.70;57.00;;;;;;5047175;28;20459;-55
2023/12/04 08:21:20;;;;;;;10.47;6.53;;;2.00;56.80;;;;;;5041504;28;20966;-56
2023/12/04 08:23:45;;;;;;;12.77;7.27;;;1.90;55.80;;;;;;5041611;28;20186;-54
2023/12/04 08:26:11;;;;;;;10.00;6.70;;;1.90;56.20;;;;;;5041031;28;20660;-54
2023/12/04 08:28:41;;;;;;;8.23;6.30;;;2.10;56.20;;;;;;5044923;28;20192;-55
2023/12/04 08:31:08;;;;;;;11.60;6.47;;;2.30;55.90;;;;;;5044945;28;20216;-53
2023/12/04 08:33:34;;;;;;;9.83;6.43;;;2.40;55.70;;;;;;5047200;28;20419;-55
2023/12/04 08:36:00;;;;;;;8.10;6.50;;;2.20;55.40;;;;;;5048404;28;20423;-54
2023/12/04 08:38:25;;;;;;;9.73;6.90;;;2.10;56.30;;;;;;5046108;28;20929;-54
2023/12/04 08:40:51;;;;;;;9.20;5.60;;;2.20;56.40;;;;;;5044763;28;20192;-53
2023/12/04 08:43:18;;;;;;;8.70;6.03;;;2.20;56.00;;;;;;5036297;28;20656;-53
2023/12/04 08:45:43;;;;;;;10.30;5.83;;;2.20;56.10;;;;;;5046176;28;20181;-56
2023/12/04 08:48:10;;;;;;;8.03;6.10;;;2.00;56.60;;;;;;5046050;28;20438;-54
2023/12/04 08:50:36;;;;;;;10.63;6.80;;;2.00;57.10;;;;;;5038025;28;20224;-55
2023/12/04 08:53:02;;;;;;;7.00;5.50;;;2.30;56.90;;;;;;5038919;28;20415;-56
2023/12/04 08:55:28;;;;;;;10.10;6.70;;;2.40;56.30;;;;;;5042026;28;20557;-56
2023/12/04 08:57:54;;;;;;;10.20;6.27;;;2.60;56.60;;;;;;5047938;28;20774;-54
2023/12/04 09:00:19;;;;;;;10.43;7.10;;;2.50;56.00;;;;;;5042310;28;20220;-56
2023/12/04 09:02:45;;;;;;;11.60;8.13;;;2.20;56.30;;;;;;5038225;28;20446;-55
2023/12/04 09:05:10;;;;;;;8.63;6.20;;;2.10;56.80;;;;;;5037999;28;20204;-57
2023/12/04 09:07:36;;;;;;;9.93;6.97;;;1.90;56.90;;;;;;5042871;28;20180;-56
2023/12/04 09:10:02;;;;;;;10.97;7.03;;;2.10;57.40;;;;;;5040994;28;20224;-55
2023/12/04 09:12:28;;;;;;;10.40;6.30;;;2.20;56.80;;;;;;5044056;28;20660;-57
2023/12/04 09:14:53;;;;;;;10.33;6.50;;;2.30;56.90;;;;;;5042876;28;20447;-55
2023/12/04 09:17:20;;;;;;;9.50;6.37;;;2.40;56.50;;;;;;5045728;28;20188;-55
2023/12/04 09:19:46;;;;;;;9.80;6.63;;;2.20;56.30;;;;;;5046786;28;20221;-55
2023/12/04 09:22:11;;;;;;;8.70;6.93;;;2.20;56.80;;;;;;5044225;28;20476;-53
2023/12/04 09:24:37;;;;;;;9.57;6.73;;;2.30;56.60;;;;;;5043462;28;20344;-53
2023/12/04 09:27:02;;;;;;;10.20;6.53;;;2.50;56.90;;;;;;5052534;28;20189;-54
2023/12/04 09:29:28;;;;;;;15.63;8.33;;;2.80;56.50;;;;;;5041193;28;20987;-55
2023/12/04 09:31:55;;;;;;;7.30;6.17;;;3.00;56.00;;;;;;5045764;28;20287;-55
2023/12/04 09:34:20;;;;;;;8.70;6.70;;;3.10;55.80;;;;;;5039809;28;20189;-55
2023/12/04 09:36:48;;;;;;;9.60;6.73;;;3.40;55.90;;;;;;5040711;28;20420;-55
2023/12/04 09:39:14;;;;;;;9.90;6.70;;;3.30;55.30;;;;;;5048881;28;20566;-54
2023/12/04 09:41:41;;;;;;;9.50;6.10;;;3.20;56.00;;;;;;5045605;28;20530;-54
2023/12/04 09:44:08;;;;;;;9.53;7.30;;;3.40;56.00;;;;;;5045422;28;21069;-55
2023/12/04 09:46:34;;;;;;;11.03;7.50;;;3.50;55.70;;;;;;5048046;28;20458;-54
2023/12/04 09:49:00;;;;;;;13.93;7.97;;;3.40;55.40;;;;;;5045789;28;20501;-54
2023/12/04 09:51:27;;;;;;;10.73;7.07;;;3.20;55.40;;;;;;5044217;28;20511;-53
2023/12/04 09:53:55;;;;;;;10.87;7.87;;;3.30;56.00;;;;;;5044425;28;21000;-54
2023/12/04 09:56:22;;;;;;;12.97;7.80;;;3.40;55.50;;;;;;5043680;28;20519;-55
2023/12/04 09:58:58;;;;;;;10.13;6.93;;;3.00;55.30;;;;;;5038814;28;20993;-54
2023/12/04 10:01:24;;;;;;;11.77;7.60;;;3.00;56.40;;;;;;5045150;28;20534;-56
2023/12/04 10:03:50;;;;;;;9.93;7.00;;;3.00;56.30;;;;;;5046840;28;20550;-54
2023/12/04 10:06:19;;;;;;;11.47;8.40;;;3.10;57.00;;;;;;5047537;28;20243;-53
2023/12/04 10:08:45;;;;;;;11.70;7.83;;;3.30;56.70;;;;;;5044869;28;20462;-55
2023/12/04 10:11:13;;;;;;;10.60;7.50;;;3.00;56.30;;;;;;5044678;28;20480;-55
2023/12/04 10:13:41;;;;;;;9.53;7.00;;;2.70;57.10;;;;;;5049494;28;20200;-56
2023/12/04 10:16:07;;;;;;;12.73;7.73;;;2.80;57.90;;;;;;5045318;28;20416;-56
2023/12/04 10:18:33;;;;;;;12.27;9.43;;;3.00;57.80;;;;;;5050741;28;20434;-56
2023/12/04 10:20:59;;;;;;;10.63;7.77;;;3.00;57.10;;;;;;5043647;28;20807;-57
2023/12/04 10:23:39;;;;;;;14.90;8.30;;;3.00;57.40;;;;;;5038330;28;20593;-56
2023/12/04 10:26:07;;;;;;;19.93;9.80;;;2.70;57.30;;;;;;5048729;28;20442;-55
2023/12/04 10:28:32;;;;;;;14.30;8.73;;;2.50;57.90;;;;;;5050816;28;20423;-55
2023/12/04 10:30:58;;;;;;;14.07;9.40;;;2.50;58.60;;;;;;5042198;28;20479;-54
2023/12/04 10:33:28;;;;;;;14.70;9.20;;;2.70;58.60;;;;;;5038144;28;20570;-56
2023/12/04 10:35:55;;;;;;;11.70;8.57;;;2.80;58.60;;;;;;5041087;28;20216;-58
2023/12/04 10:38:21;;;;;;;17.77;9.63;;;2.80;58.20;;;;;;5044991;28;21158;-53
2023/12/04 10:40:47;;;;;;;16.70;8.13;;;2.80;58.10;;;;;;5040685;28;20525;-56
2023/12/04 10:43:23;;;;;;;10.87;8.70;;;2.60;58.40;;;;;;5038613;28;20439;-53
2023/12/04 10:45:51;;;;;;;13.80;8.70;;;2.50;58.60;;;;;;5043448;28;20536;-55
2023/12/04 10:48:18;;;;;;;12.90;9.07;;;2.40;58.90;;;;;;5043788;28;20443;-55
2023/12/04 10:50:45;;;;;;;12.60;9.07;;;2.40;59.00;;;;;;5044168;28;20505;-53
2023/12/04 10:53:13;;;;;;;15.60;7.80;;;2.60;59.10;;;;;;5048497;28;20461;-56
2023/12/04 10:55:39;;;;;;;10.27;7.90;;;2.80;59.10;;;;;;5046002;28;20435;-54
2023/12/04 10:58:10;;;;;;;11.63;7.90;;;2.90;58.90;;;;;;5047015;28;20451;-54
2023/12/04 11:00:44;;;;;;;11.73;8.07;;;3.00;58.70;;;;;;5041064;28;20515;-56
2023/12/04 11:03:13;;;;;;;10.00;6.90;;;3.10;58.70;;;;;;5042084;28;20448;-55
2023/12/04 11:05:40;;;;;;;12.17;8.57;;;3.30;57.90;;;;;;5048078;28;20521;-54
2023/12/04 11:08:08;;;;;;;11.90;8.30;;;3.20;57.60;;;;;;5046828;28;20447;-53
2023/12/04 11:10:41;;;;;;;9.80;7.60;;;3.40;57.80;;;;;;5043278;28;20544;-55
2023/12/04 11:13:14;;;;;;;12.20;7.80;;;3.30;56.50;;;;;;5046111;28;20580;-54
2023/12/04 11:15:41;;;;;;;14.40;8.67;;;3.20;56.90;;;;;;5048782;28;20800;-56
2023/12/04 11:18:11;;;;;;;11.40;7.23;;;3.10;57.40;;;;;;5042368;28;21017;-53
2023/12/04 11:20:43;;;;;;;13.50;9.97;;;3.10;57.70;;;;;;5044425;28;20475;-53
2023/12/04 11:23:09;;;;;;;14.80;8.83;;;3.40;58.00;;;;;;5047804;28;20466;-56
2023/12/04 11:25:36;;;;;;;10.40;8.13;;;3.50;57.10;;;;;;5043554;28;20440;-53
2023/12/04 11:28:03;;;;;;;12.13;8.67;;;3.30;56.90;;;;;;5046430;28;20223;-53
2023/12/04 11:30:30;;;;;;;13.33;8.77;;;3.00;57.00;;;;;;5044264;28;20479;-54
2023/12/04 11:32:56;;;;;;;12.37;9.10;;;3.20;57.80;;;;;;5048379;28;20957;-53
2023/12/04 11:35:26;;;;;;;12.00;8.23;;;3.10;57.50;;;;;;5047280;28;20526;-54
2023/12/04 11:37:52;;;;;;;15.53;10.17;;;3.30;57.50;;;;;;5045143;28;20447;-54
2023/12/04 11:40:18;;;;;;;12.27;7.70;;;3.50;57.60;;;;;;5047762;28;20459;-54
2023/12/04 11:42:44;;;;;;;13.40;8.40;;;3.70;57.30;;;;;;5047624;28;20443;-56
2023/12/04 11:45:10;;;;;;;12.70;9.40;;;3.90;57.10;;;;;;5045702;28;20932;-56
2023/12/04 11:47:56;;;;;;;16.53;9.03;;;3.70;57.10;;;;;;5046693;28;20192;-53
2023/12/04 11:50:24;;;;;;;12.77;9.30;;;3.60;57.20;;;;;;5046300;28;20849;-53
2023/12/04 11:52:49;;;;;;;13.97;9.07;;;3.70;57.50;;;;;;5047636;28;20447;-54
2023/12/04 11:55:21;;;;;;;16.67;10.03;;;3.70;57.60;;;;;;5039943;28;20455;-55
2023/12/04 11:57:50;;;;;;;12.60;10.13;;;3.40;57.90;;;;;;5043033;28;20195;-52
2023/12/04 12:00:19;;;;;;;12.83;9.70;;;3.50;58.80;;;;;;5045953;28;20885;-52
2023/12/04 12:02:54;;;;;;;17.03;10.90;;;3.70;58.40;;;;;;5044339;28;20508;-53
2023/12/04 12:05:20;;;;;;;12.30;9.03;;;3.90;58.10;;;;;;5048614;28;20441;-52
2023/12/04 12:07:47;;;;;;;13.00;9.13;;;3.80;58.10;;;;;;5042816;28;20439;-56
2023/12/04 12:10:13;;;;;;;13.37;9.20;;;3.70;58.20;;;;;;5043019;28;21194;-55
2023/12/04 12:12:42;;;;;;;13.60;9.20;;;3.70;58.40;;;;;;5046273;28;20471;-53
2023/12/04 12:15:09;;;;;;;13.73;9.00;;;3.60;58.20;;;;;;5046096;28;20857;-53
2023/12/04 12:17:37;;;;;;;14.30;9.63;;;3.50;58.30;;;;;;5043411;28;20442;-57
2023/12/04 12:20:06;;;;;;;14.33;9.47;;;3.60;58.50;;;;;;5040381;28;20510;-55
2023/12/04 12:22:33;;;;;;;14.57;9.80;;;3.70;58.40;;;;;;5040650;28;20998;-55
2023/12/04 12:24:58;;;;;;;17.03;9.70;;;3.40;58.80;;;;;;5043090;28;20435;-54
2023/12/04 12:27:25;;;;;;;13.07;8.93;;;3.20;59.10;;;;;;5048059;28;20522;-52
2023/12/04 12:29:50;;;;;;;15.43;9.73;;;3.30;58.90;;;;;;5047030;28;20220;-53
2023/12/04 12:32:16;;;;;;;11.97;8.73;;;3.50;59.10;;;;;;5043733;28;20436;-55
2023/12/04 12:34:42;;;;;;;13.33;8.80;;;3.60;59.30;;;;;;5043994;28;20280;-52
2023/12/04 12:37:08;;;;;;;15.90;9.23;;;3.80;58.50;;;;;;5039223;28;20627;-54
2023/12/04 12:39:35;;;;;;;13.77;9.23;;;3.70;58.30;;;;;;5042407;28;20529;-52
2023/12/04 12:42:01;;;;;;;14.80;10.47;;;3.80;58.20;;;;;;5044995;28;20442;-53
2023/12/04 12:44:27;;;;;;;15.17;10.47;;;3.60;58.40;;;;;;5040383;28;20911;-55